Time;durP1;ratioP1;P1;durP2;ratioP2;P2;SDS_P1;SDS_P2;PMS_P1;PMS_P2;Temp;Humidity;BMP_temperature;BMP_pressure;BME280_temperature;BME280_humidity;BME280_pressure;Samples;Min_cycle;Max_cycle;Signal;HPM_P1;HPM_P2
2021/06/29 00:01:45;;;;;;;13.50;10.00;;;16.60;99.90;;;;;;5052657;28;20202;-84
2021/06/29 00:04:13;;;;;;;20.83;11.03;;;16.70;99.90;;;;;;5048786;28;20255;-84
2021/06/29 00:06:44;;;;;;;13.73;9.80;;;16.70;99.90;;;;;;5051775;28;20234;-85
2021/06/29 00:09:14;;;;;;;15.73;10.20;;;16.70;99.90;;;;;;5056076;28;20222;-85
2021/06/29 00:11:43;;;;;;;12.07;9.90;;;16.70;99.90;;;;;;5047614;28;21337;-84
2021/06/29 00:14:12;;;;;;;14.97;10.37;;;16.60;99.90;;;;;;5041828;28;20229;-86
2021/06/29 00:16:41;;;;;;;12.67;9.87;;;16.50;99.90;;;;;;5034708;28;20390;-86
2021/06/29 00:19:10;;;;;;;17.70;10.90;;;16.50;99.90;;;;;;5044801;28;21113;-84
2021/06/29 00:21:39;;;;;;;13.47;10.63;;;16.40;99.90;;;;;;5044265;28;20446;-84
2021/06/29 00:24:09;;;;;;;11.53;10.17;;;16.40;99.90;;;;;;5053058;28;20232;-84
2021/06/29 00:26:38;;;;;;;15.00;10.00;;;16.40;99.90;;;;;;5060055;28;20220;-84
2021/06/29 00:29:06;;;;;;;16.83;11.47;;;16.40;99.90;;;;;;5050085;28;20256;-84
2021/06/29 00:31:35;;;;;;;14.47;10.33;;;16.50;99.90;;;;;;5054815;28;20198;-82
2021/06/29 00:34:04;;;;;;;13.77;10.30;;;16.40;99.90;;;;;;5056099;28;20229;-84
2021/06/29 00:36:33;;;;;;;14.40;10.90;;;16.40;99.90;;;;;;5033179;28;20690;-86
2021/06/29 00:39:01;;;;;;;15.23;10.70;;;16.40;99.90;;;;;;5033078;28;20680;-86
2021/06/29 00:41:31;;;;;;;14.33;10.77;;;16.40;99.90;;;;;;5027978;28;20202;-86
2021/06/29 00:44:00;;;;;;;13.90;10.70;;;16.40;99.90;;;;;;5035403;28;20825;-85
2021/06/29 00:46:30;;;;;;;18.80;11.77;;;16.40;99.90;;;;;;5032330;28;20212;-85
2021/06/29 00:48:58;;;;;;;15.37;11.33;;;16.40;99.90;;;;;;5034801;28;20670;-85
2021/06/29 00:51:27;;;;;;;14.37;11.63;;;16.40;99.90;;;;;;5033600;28;20194;-84
2021/06/29 00:53:55;;;;;;;15.17;11.07;;;16.30;99.90;;;;;;5031560;28;20298;-86
2021/06/29 00:56:24;;;;;;;14.30;11.23;;;16.30;99.90;;;;;;5032634;28;20289;-85
2021/06/29 00:58:54;;;;;;;13.73;10.73;;;16.30;99.90;;;;;;5031138;28;20730;-85
2021/06/29 01:01:23;;;;;;;15.57;11.23;;;16.20;99.90;;;;;;5034766;28;20206;-84
2021/06/29 01:03:52;;;;;;;14.53;10.67;;;16.30;99.90;;;;;;5034903;28;20215;-86
2021/06/29 01:06:21;;;;;;;15.50;10.60;;;16.20;99.90;;;;;;5034759;28;20965;-85
2021/06/29 01:08:50;;;;;;;13.77;10.20;;;16.20;99.90;;;;;;5037315;28;20202;-85
2021/06/29 01:11:22;;;;;;;12.27;10.60;;;16.20;99.90;;;;;;5044713;28;20278;-86
2021/06/29 01:13:51;;;;;;;12.97;10.50;;;16.20;99.90;;;;;;5050126;28;20244;-85
2021/06/29 01:16:22;;;;;;;12.57;11.23;;;16.30;99.90;;;;;;5062221;28;20209;-85
2021/06/29 01:18:51;;;;;;;12.07;10.73;;;16.30;99.90;;;;;;5043171;28;20198;-84
2021/06/29 01:21:22;;;;;;;12.53;10.00;;;16.30;99.90;;;;;;5040042;28;20225;-85
2021/06/29 01:23:53;;;;;;;12.33;10.57;;;16.30;99.90;;;;;;5040761;28;20206;-85
2021/06/29 01:26:24;;;;;;;10.80;9.13;;;16.30;99.90;;;;;;5048314;28;20206;-84
2021/06/29 01:28:58;;;;;;;12.13;9.90;;;16.30;99.90;;;;;;5042242;28;20595;-85
2021/06/29 01:31:26;;;;;;;11.73;10.27;;;16.20;99.90;;;;;;5043078;28;20202;-85
2021/06/29 01:33:55;;;;;;;12.53;10.50;;;16.20;99.90;;;;;;5037929;28;20198;-84
2021/06/29 01:36:32;;;;;;;11.77;10.63;;;16.20;99.90;;;;;;5038705;28;20205;-84
2021/06/29 01:39:02;;;;;;;13.30;9.90;;;16.20;99.90;;;;;;5046627;28;20210;-84
2021/06/29 01:41:30;;;;;;;12.03;10.10;;;16.20;99.90;;;;;;5055122;28;20218;-84
2021/06/29 01:44:03;;;;;;;15.03;9.73;;;16.20;99.90;;;;;;5048310;28;20206;-86
2021/06/29 01:46:36;;;;;;;13.40;9.27;;;16.20;99.90;;;;;;5039532;28;20217;-85
2021/06/29 01:49:05;;;;;;;13.83;9.83;;;16.20;99.90;;;;;;5034626;28;20218;-85
2021/06/29 01:51:35;;;;;;;10.57;9.57;;;16.10;99.90;;;;;;5058666;28;20194;-84
2021/06/29 01:54:04;;;;;;;10.60;9.40;;;16.10;99.90;;;;;;5058051;28;20436;-85
2021/06/29 01:56:35;;;;;;;14.23;9.83;;;16.00;99.90;;;;;;5048607;28;20210;-86
2021/06/29 01:59:10;;;;;;;11.10;9.57;;;15.90;99.90;;;;;;5046495;28;20206;-85
2021/06/29 02:01:39;;;;;;;11.53;10.13;;;15.80;99.90;;;;;;5054743;28;20247;-86
2021/06/29 02:04:08;;;;;;;11.97;10.33;;;15.70;99.90;;;;;;5051443;28;20202;-85
2021/06/29 02:06:38;;;;;;;11.90;10.57;;;15.60;99.90;;;;;;5053435;28;20194;-85
2021/06/29 02:09:08;;;;;;;14.07;10.53;;;15.60;99.90;;;;;;5061782;28;20434;-86
2021/06/29 02:11:40;;;;;;;15.03;11.67;;;15.50;99.90;;;;;;5059305;28;20195;-84
2021/06/29 02:14:08;;;;;;;12.70;11.13;;;15.50;99.90;;;;;;5054000;28;20526;-84
2021/06/29 02:16:37;;;;;;;13.30;11.57;;;15.50;99.90;;;;;;5055696;28;20207;-84
2021/06/29 02:19:09;;;;;;;11.77;10.57;;;15.50;99.90;;;;;;5028761;28;20271;-85
2021/06/29 02:21:39;;;;;;;14.23;11.47;;;15.50;99.90;;;;;;5033991;28;20206;-85
2021/06/29 02:24:08;;;;;;;13.43;12.03;;;15.50;99.90;;;;;;5031289;28;20786;-85
2021/06/29 02:26:37;;;;;;;14.57;11.33;;;15.50;99.90;;;;;;5037879;28;20369;-85
2021/06/29 02:29:05;;;;;;;14.57;11.93;;;15.60;99.90;;;;;;5039822;28;20205;-86
2021/06/29 02:31:34;;;;;;;13.50;12.10;;;15.50;99.90;;;;;;5051643;28;20220;-85
2021/06/29 02:34:03;;;;;;;14.47;12.97;;;15.60;99.90;;;;;;5055699;28;20304;-86
2021/06/29 02:36:32;;;;;;;15.10;13.00;;;15.60;99.90;;;;;;5055122;28;20222;-87
2021/06/29 02:39:02;;;;;;;17.40;12.97;;;15.50;99.90;;;;;;5054086;28;20744;-86
2021/06/29 02:41:31;;;;;;;15.83;12.80;;;15.50;99.90;;;;;;5050450;28;20303;-86
2021/06/29 02:44:00;;;;;;;16.87;12.80;;;15.60;99.90;;;;;;5039320;28;20202;-87
2021/06/29 02:46:29;;;;;;;13.60;12.13;;;15.60;99.90;;;;;;5054615;28;20246;-84
2021/06/29 02:48:58;;;;;;;13.70;12.30;;;15.60;99.90;;;;;;5040608;28;20198;-85
2021/06/29 02:51:26;;;;;;;16.33;12.23;;;15.70;99.90;;;;;;5039730;28;20208;-86
2021/06/29 02:53:56;;;;;;;14.57;12.50;;;15.70;99.90;;;;;;5038994;28;20205;-84
2021/06/29 02:56:38;;;;;;;14.93;13.27;;;15.80;99.90;;;;;;5031620;28;20230;-85
2021/06/29 02:59:10;;;;;;;18.40;12.93;;;15.80;99.90;;;;;;5032612;28;20201;-85
2021/06/29 03:01:38;;;;;;;17.47;13.17;;;15.80;99.90;;;;;;5033664;28;20261;-84
2021/06/29 03:04:08;;;;;;;18.33;13.20;;;15.90;99.90;;;;;;5034750;28;20210;-85
2021/06/29 03:06:37;;;;;;;15.33;12.20;;;15.90;99.90;;;;;;5034922;28;20422;-84
2021/06/29 03:09:08;;;;;;;15.90;13.33;;;16.00;99.90;;;;;;5034153;28;20198;-86
2021/06/29 03:11:39;;;;;;;16.77;13.57;;;16.00;99.90;;;;;;5040306;28;20194;-86
2021/06/29 03:14:07;;;;;;;14.27;12.23;;;16.10;99.90;;;;;;5037750;28;20205;-84
2021/06/29 03:16:36;;;;;;;14.93;12.80;;;16.20;99.90;;;;;;5040041;28;20221;-83
2021/06/29 03:19:05;;;;;;;18.10;13.93;;;16.20;99.90;;;;;;5034412;28;20216;-84
2021/06/29 03:21:34;;;;;;;15.70;12.83;;;16.30;99.90;;;;;;5043003;28;20210;-87
2021/06/29 03:24:02;;;;;;;16.07;13.33;;;16.30;99.90;;;;;;5046920;28;20198;-84
2021/06/29 03:26:32;;;;;;;15.50;13.13;;;16.50;99.90;;;;;;5053449;28;20212;-85
2021/06/29 03:29:04;;;;;;;16.00;12.60;;;16.40;99.90;;;;;;5042680;28;20230;-85
2021/06/29 03:31:33;;;;;;;15.30;13.70;;;16.60;99.90;;;;;;5044134;28;20628;-85
2021/06/29 03:34:02;;;;;;;14.83;13.10;;;16.70;99.90;;;;;;5059229;28;20205;-88
2021/06/29 03:36:31;;;;;;;17.40;14.10;;;16.70;99.90;;;;;;5052697;28;20275;-84
2021/06/29 03:39:00;;;;;;;14.43;12.93;;;16.90;99.90;;;;;;5045360;28;20206;-86
2021/06/29 03:41:29;;;;;;;14.27;12.77;;;16.90;99.90;;;;;;5039250;28;20193;-87
2021/06/29 03:43:57;;;;;;;15.50;12.63;;;17.00;99.90;;;;;;5033245;28;20305;-85
2021/06/29 03:46:28;;;;;;;13.87;11.97;;;17.00;99.90;;;;;;5041158;28;20185;-86
2021/06/29 03:48:57;;;;;;;14.20;12.67;;;17.10;99.90;;;;;;5055775;28;20186;-85
2021/06/29 03:51:26;;;;;;;14.53;12.07;;;17.20;99.90;;;;;;5038328;28;20214;-86
2021/06/29 03:53:56;;;;;;;14.30;11.57;;;17.30;99.90;;;;;;5037806;28;20265;-89
2021/06/29 03:56:28;;;;;;;13.77;12.37;;;17.30;99.90;;;;;;5031598;28;20241;-86
2021/06/29 03:58:58;;;;;;;13.60;11.67;;;17.40;99.90;;;;;;5040355;28;20205;-87
2021/06/29 04:01:29;;;;;;;14.40;11.03;;;17.50;99.90;;;;;;5057167;28;20577;-86
2021/06/29 04:03:59;;;;;;;15.93;12.27;;;17.60;99.90;;;;;;5067508;28;20210;-88
2021/06/29 04:06:30;;;;;;;13.17;11.77;;;17.70;99.90;;;;;;5061555;28;20468;-85
2021/06/29 04:09:00;;;;;;;14.10;11.53;;;17.70;99.90;;;;;;5049960;28;20202;-85
2021/06/29 04:11:29;;;;;;;14.93;12.23;;;17.80;99.90;;;;;;5038420;28;20202;-84
2021/06/29 04:13:59;;;;;;;14.20;11.57;;;17.90;99.90;;;;;;5036025;28;20296;-84
2021/06/29 04:16:29;;;;;;;15.40;11.57;;;18.00;99.90;;;;;;5033572;28;20229;-84
2021/06/29 04:18:58;;;;;;;17.87;12.80;;;18.10;99.80;;;;;;5036562;28;20315;-86
2021/06/29 04:21:27;;;;;;;15.40;11.83;;;18.20;99.60;;;;;;5028999;28;20497;-84
2021/06/29 04:23:56;;;;;;;13.87;11.63;;;18.30;98.40;;;;;;5040435;28;20284;-84
2021/06/29 04:26:25;;;;;;;15.53;12.63;;;18.40;98.60;;;;;;5032332;28;20225;-84
2021/06/29 04:28:54;;;;;;;15.93;11.20;;;18.60;98.50;;;;;;5038603;28;20573;-83
2021/06/29 04:31:22;;;;;;;12.13;10.83;;;18.70;97.60;;;;;;5036800;28;20221;-85
2021/06/29 04:33:52;;;;;;;13.23;11.83;;;18.90;97.00;;;;;;5054739;28;20225;-85
2021/06/29 04:36:21;;;;;;;12.20;10.90;;;19.20;94.90;;;;;;5049832;28;20565;-84
2021/06/29 04:38:50;;;;;;;14.10;11.60;;;19.40;95.00;;;;;;5049386;28;20209;-85
2021/06/29 04:41:20;;;;;;;14.17;11.43;;;19.60;93.90;;;;;;5063949;28;20279;-86
2021/06/29 04:43:48;;;;;;;13.40;10.57;;;19.80;93.50;;;;;;5060221;28;20203;-85
2021/06/29 04:46:17;;;;;;;11.53;10.43;;;20.10;93.20;;;;;;5044880;28;20235;-85
2021/06/29 04:48:46;;;;;;;11.07;9.97;;;20.30;92.90;;;;;;5041913;28;20206;-87
2021/06/29 04:51:17;;;;;;;12.53;9.23;;;20.60;92.00;;;;;;5052680;28;20194;-85
2021/06/29 04:53:45;;;;;;;12.10;9.27;;;20.80;91.30;;;;;;5062380;28;20217;-86
2021/06/29 04:56:20;;;;;;;10.70;9.60;;;21.10;91.30;;;;;;5047963;28;20229;-83
2021/06/29 04:58:53;;;;;;;9.27;7.40;;;21.30;91.10;;;;;;5054154;28;20197;-86
2021/06/29 05:01:22;;;;;;;8.97;6.67;;;21.60;86.20;;;;;;5053675;28;20268;-85
2021/06/29 05:03:52;;;;;;;7.87;6.20;;;21.80;84.50;;;;;;5051300;28;20256;-85
2021/06/29 05:06:22;;;;;;;7.47;6.73;;;22.10;83.40;;;;;;5053895;28;20236;-85
2021/06/29 05:08:51;;;;;;;8.80;5.97;;;22.30;83.50;;;;;;5045765;28;20206;-83
2021/06/29 05:11:19;;;;;;;6.93;6.23;;;22.40;82.60;;;;;;5041002;28;20213;-86
2021/06/29 05:13:48;;;;;;;7.32;5.75;;;22.50;82.30;;;;;;5033235;28;20225;-84
2021/06/29 05:16:17;;;;;;;6.75;6.15;;;22.60;82.20;;;;;;5036819;28;20777;-85
2021/06/29 05:18:45;;;;;;;6.40;5.63;;;22.80;82.10;;;;;;5033589;28;20542;-83
2021/06/29 05:21:14;;;;;;;8.77;5.75;;;23.00;82.10;;;;;;5036265;28;20267;-84
2021/06/29 05:23:45;;;;;;;8.90;6.25;;;23.10;81.70;;;;;;5032035;28;20525;-83
2021/06/29 05:26:14;;;;;;;5.95;5.20;;;23.20;81.20;;;;;;5036509;28;20476;-84
2021/06/29 05:28:43;;;;;;;6.68;5.28;;;23.30;80.90;;;;;;5030502;28;20213;-83
2021/06/29 05:31:12;;;;;;;7.07;5.25;;;23.40;80.50;;;;;;5040995;28;20202;-85
2021/06/29 05:33:42;;;;;;;5.07;4.50;;;23.50;80.30;;;;;;5037462;28;20203;-84
2021/06/29 05:36:11;;;;;;;5.35;4.80;;;23.70;79.90;;;;;;5047881;28;20214;-86
2021/06/29 05:38:39;;;;;;;6.55;4.63;;;23.90;79.70;;;;;;5057816;28;20417;-85
2021/06/29 05:41:10;;;;;;;5.68;4.65;;;24.00;79.00;;;;;;5052959;28;20216;-83
2021/06/29 05:43:39;;;;;;;4.60;4.22;;;24.00;78.50;;;;;;5043036;28;20202;-85
2021/06/29 05:46:08;;;;;;;6.43;4.65;;;24.10;78.40;;;;;;5047052;28;20644;-83
2021/06/29 05:48:36;;;;;;;5.40;4.90;;;24.20;78.30;;;;;;5051363;28;20199;-84
2021/06/29 05:51:06;;;;;;;5.15;4.65;;;24.30;77.80;;;;;;5056665;28;20190;-83
2021/06/29 05:53:35;;;;;;;5.03;4.57;;;24.30;78.10;;;;;;5051338;28;20463;-83
2021/06/29 05:56:03;;;;;;;6.10;4.40;;;24.50;78.10;;;;;;5052446;28;20206;-82
2021/06/29 05:58:33;;;;;;;6.70;4.60;;;24.60;77.60;;;;;;5044931;28;20214;-84
2021/06/29 06:01:03;;;;;;;4.68;4.18;;;24.60;77.50;;;;;;5038493;28;20202;-84
2021/06/29 06:03:31;;;;;;;7.80;3.95;;;24.70;77.20;;;;;;5028851;28;20233;-85
2021/06/29 06:06:03;;;;;;;5.72;4.20;;;24.90;76.70;;;;;;5039765;28;20210;-84
2021/06/29 06:08:32;;;;;;;5.53;3.80;;;25.00;76.40;;;;;;5042128;28;20194;-82
2021/06/29 06:11:02;;;;;;;6.85;4.47;;;25.10;76.10;;;;;;5040736;28;20221;-84
2021/06/29 06:13:31;;;;;;;4.93;4.05;;;25.20;75.30;;;;;;5043700;28;20277;-83
2021/06/29 06:16:02;;;;;;;8.95;4.40;;;25.20;74.80;;;;;;5044066;28;20652;-84
2021/06/29 06:18:30;;;;;;;8.55;4.05;;;25.20;74.60;;;;;;5029191;28;20210;-83
2021/06/29 06:20:59;;;;;;;4.70;3.78;;;25.20;74.60;;;;;;5024757;28;20217;-83
2021/06/29 06:23:28;;;;;;;6.32;3.90;;;25.20;74.10;;;;;;5042323;28;20458;-83
2021/06/29 06:25:56;;;;;;;5.93;3.70;;;25.40;74.20;;;;;;5036602;28;20209;-83
2021/06/29 06:28:25;;;;;;;4.72;4.20;;;25.50;74.00;;;;;;5029284;28;20283;-83
2021/06/29 06:30:53;;;;;;;5.78;4.00;;;25.70;74.20;;;;;;5021841;28;20202;-84
2021/06/29 06:33:24;;;;;;;4.30;3.55;;;25.80;73.70;;;;;;5016129;28;20199;-81
2021/06/29 06:36:10;;;;;;;4.63;4.03;;;25.90;73.30;;;;;;5011638;28;20262;-81
2021/06/29 06:38:39;;;;;;;6.95;3.97;;;26.00;72.40;;;;;;4996424;28;20238;-82
2021/06/29 06:41:13;;;;;;;4.00;3.60;;;26.10;72.00;;;;;;4996892;28;20701;-83
2021/06/29 06:43:42;;;;;;;4.97;4.20;;;26.20;71.30;;;;;;4998765;28;20233;-82
2021/06/29 06:46:11;;;;;;;4.25;3.85;;;26.20;71.10;;;;;;4995478;28;20467;-83
2021/06/29 06:48:42;;;;;;;5.18;3.75;;;26.30;70.50;;;;;;4997565;28;20229;-82
2021/06/29 06:51:12;;;;;;;5.97;4.47;;;26.40;70.80;;;;;;4999975;28;20613;-79
2021/06/29 06:53:41;;;;;;;3.85;3.55;;;26.50;70.50;;;;;;5000957;28;20214;-82
2021/06/29 06:56:14;;;;;;;4.45;3.65;;;26.70;70.30;;;;;;4998731;28;20221;-80
2021/06/29 06:58:43;;;;;;;3.85;3.50;;;26.70;68.80;;;;;;5013084;28;20426;-82
2021/06/29 07:01:15;;;;;;;4.30;3.75;;;26.60;68.10;;;;;;5011754;28;20245;-83
2021/06/29 07:03:46;;;;;;;4.85;3.65;;;26.70;68.50;;;;;;4998183;28;20219;-82
2021/06/29 07:06:14;;;;;;;4.13;3.72;;;26.80;69.00;;;;;;4989978;28;20702;-81
2021/06/29 07:08:43;;;;;;;4.22;3.83;;;26.90;68.20;;;;;;4982139;28;20622;-82
2021/06/29 07:11:13;;;;;;;5.38;3.88;;;27.00;68.10;;;;;;5001849;28;20205;-82
2021/06/29 07:13:41;;;;;;;4.47;4.18;;;27.00;67.80;;;;;;5018776;28;20313;-81
2021/06/29 07:16:10;;;;;;;4.38;3.97;;;27.10;67.60;;;;;;4989790;28;20817;-82
2021/06/29 07:18:39;;;;;;;4.28;3.83;;;27.10;67.00;;;;;;5007870;28;21056;-81
2021/06/29 07:21:11;;;;;;;6.05;4.15;;;27.10;67.10;;;;;;5000884;28;20306;-86
2021/06/29 07:23:40;;;;;;;4.28;3.88;;;27.10;67.60;;;;;;4990920;28;20689;-82
2021/06/29 07:26:09;;;;;;;5.63;4.15;;;27.20;66.50;;;;;;4986787;28;20286;-81
2021/06/29 07:28:37;;;;;;;6.50;4.38;;;27.30;67.20;;;;;;4993431;28;20726;-82
2021/06/29 07:31:10;;;;;;;4.57;4.13;;;27.40;66.80;;;;;;4998373;28;20226;-81
2021/06/29 07:33:39;;;;;;;6.03;4.22;;;27.50;66.90;;;;;;5004422;28;20496;-82
2021/06/29 07:36:12;;;;;;;5.15;4.55;;;27.50;66.20;;;;;;5002617;28;20325;-82
2021/06/29 07:38:41;;;;;;;4.75;4.35;;;27.50;66.40;;;;;;5004498;28;20352;-83
2021/06/29 07:41:11;;;;;;;6.65;4.28;;;27.60;67.10;;;;;;4928847;28;20785;-82
2021/06/29 07:43:40;;;;;;;6.20;4.13;;;27.80;66.30;;;;;;5003584;28;20460;-82
2021/06/29 07:46:09;;;;;;;4.70;4.28;;;28.00;66.80;;;;;;4998133;28;20542;-81
2021/06/29 07:48:38;;;;;;;4.22;3.90;;;28.10;65.90;;;;;;4997884;28;20207;-83
2021/06/29 07:51:09;;;;;;;4.80;3.80;;;28.00;65.70;;;;;;4998715;28;20279;-81
2021/06/29 07:53:40;;;;;;;4.07;3.67;;;28.00;65.00;;;;;;5000704;28;20328;-83
2021/06/29 07:56:14;;;;;;;5.32;3.50;;;27.80;64.70;;;;;;5003275;28;20549;-81
2021/06/29 07:58:43;;;;;;;6.20;3.97;;;27.80;64.80;;;;;;4992088;28;20555;-82
2021/06/29 08:01:14;;;;;;;6.47;4.10;;;28.00;65.10;;;;;;4992342;28;20916;-84
2021/06/29 08:03:43;;;;;;;4.53;3.50;;;27.90;64.20;;;;;;4995816;28;20463;-82
2021/06/29 08:06:15;;;;;;;5.65;3.75;;;27.70;64.20;;;;;;4992631;28;20206;-81
2021/06/29 08:08:44;;;;;;;8.85;7.30;;;27.80;64.60;;;;;;4989771;28;20214;-82
2021/06/29 08:11:13;;;;;;;3.97;3.55;;;27.90;64.80;;;;;;4997886;28;20199;-81
2021/06/29 08:13:42;;;;;;;6.82;3.80;;;28.10;64.00;;;;;;5001000;28;20202;-82
2021/06/29 08:16:12;;;;;;;4.53;3.30;;;28.20;63.80;;;;;;4988966;28;20288;-81
2021/06/29 08:18:42;;;;;;;6.00;3.53;;;28.20;63.50;;;;;;4988065;28;20310;-82
2021/06/29 08:21:10;;;;;;;3.95;3.55;;;28.10;63.50;;;;;;4990953;28;21375;-83
2021/06/29 08:23:41;;;;;;;5.15;3.63;;;28.10;63.10;;;;;;4990716;28;20195;-83
2021/06/29 08:26:10;;;;;;;9.05;3.78;;;28.20;63.50;;;;;;4988223;28;20683;-81
2021/06/29 08:28:39;;;;;;;5.05;4.07;;;28.30;63.50;;;;;;4995396;28;20607;-81
2021/06/29 08:31:08;;;;;;;4.50;3.50;;;28.40;63.30;;;;;;4988529;28;20292;-82
2021/06/29 08:33:37;;;;;;;4.43;4.13;;;28.60;63.00;;;;;;4996937;28;20237;-83
2021/06/29 08:36:07;;;;;;;4.82;3.92;;;28.70;63.20;;;;;;4989684;28;20272;-80
2021/06/29 08:38:36;;;;;;;7.43;4.18;;;28.70;62.30;;;;;;4997025;28;20287;-81
2021/06/29 08:41:06;;;;;;;4.28;3.72;;;28.60;62.30;;;;;;4992454;28;20318;-82
2021/06/29 08:43:35;;;;;;;3.83;3.58;;;28.70;61.40;;;;;;4996502;28;20207;-81
2021/06/29 08:46:05;;;;;;;4.80;4.30;;;28.70;61.80;;;;;;4999182;28;20202;-81
2021/06/29 08:48:34;;;;;;;3.90;3.60;;;28.80;61.50;;;;;;5020396;28;20198;-81
2021/06/29 08:51:05;;;;;;;3.35;3.15;;;28.80;60.80;;;;;;5006272;28;20617;-81
2021/06/29 08:53:37;;;;;;;8.68;3.55;;;28.70;60.60;;;;;;5003554;28;20203;-80
2021/06/29 08:56:15;;;;;;;4.05;3.65;;;28.60;60.50;;;;;;5013088;28;20203;-81
2021/06/29 08:58:45;;;;;;;3.95;3.60;;;28.50;60.70;;;;;;4996335;28;20222;-80
2021/06/29 09:01:14;;;;;;;5.30;4.88;;;28.60;60.60;;;;;;4992006;28;20209;-80
2021/06/29 09:03:44;;;;;;;6.50;4.75;;;28.60;60.10;;;;;;5006810;28;20203;-81
2021/06/29 09:06:12;;;;;;;6.90;3.63;;;28.50;59.90;;;;;;5003975;28;20203;-81
2021/06/29 09:08:42;;;;;;;4.38;3.40;;;28.50;59.30;;;;;;4999612;28;20214;-81
2021/06/29 09:11:15;;;;;;;4.13;3.40;;;28.50;59.90;;;;;;4997433;28;20214;-82
2021/06/29 09:14:02;;;;;;;4.00;3.70;;;28.60;59.90;;;;;;4983115;28;20320;-81
2021/06/29 09:16:31;;;;;;;3.85;3.20;;;28.50;57.60;;;;;;5014391;28;20653;-83
2021/06/29 09:19:00;;;;;;;3.42;3.10;;;28.50;57.70;;;;;;5015106;28;20222;-82
2021/06/29 09:21:35;;;;;;;4.13;3.10;;;28.60;58.50;;;;;;4990956;28;20741;-81
2021/06/29 09:24:06;;;;;;;4.57;3.72;;;28.70;59.10;;;;;;4998214;28;20280;-82
2021/06/29 09:26:41;;;;;;;4.95;3.72;;;28.80;58.70;;;;;;5015797;28;20694;-82
2021/06/29 09:29:10;;;;;;;4.20;3.90;;;28.90;59.30;;;;;;4994361;28;20289;-82
2021/06/29 09:31:41;;;;;;;6.93;3.92;;;29.00;58.90;;;;;;4984983;28;20206;-83
2021/06/29 09:34:13;;;;;;;4.07;3.78;;;28.90;59.40;;;;;;4982457;28;21005;-84
2021/06/29 09:36:42;;;;;;;5.35;3.50;;;28.80;58.70;;;;;;4986133;28;20242;-82
2021/06/29 09:39:14;;;;;;;4.35;4.00;;;28.90;58.80;;;;;;4997080;28;20587;-82
2021/06/29 09:41:47;;;;;;;4.07;3.78;;;29.00;58.70;;;;;;4996794;28;21826;-81
2021/06/29 09:44:20;;;;;;;4.22;3.83;;;29.00;58.20;;;;;;4990857;28;20692;-82
2021/06/29 09:46:49;;;;;;;4.47;4.00;;;28.80;59.00;;;;;;4995054;28;20248;-82
2021/06/29 09:49:20;;;;;;;4.70;4.10;;;28.60;58.70;;;;;;5001168;28;20202;-82
2021/06/29 09:51:52;;;;;;;4.75;3.83;;;28.30;57.80;;;;;;5002847;28;20480;-82
2021/06/29 09:54:25;;;;;;;4.43;4.03;;;28.30;59.40;;;;;;4998803;28;20214;-82
2021/06/29 09:56:55;;;;;;;5.05;3.70;;;28.30;58.60;;;;;;4998526;28;20234;-80
2021/06/29 09:59:25;;;;;;;4.22;3.42;;;28.30;57.00;;;;;;5001269;28;20366;-82
2021/06/29 10:02:05;;;;;;;3.85;3.55;;;28.10;57.50;;;;;;5001403;28;20210;-83
2021/06/29 10:04:34;;;;;;;3.75;3.45;;;27.90;57.30;;;;;;4996713;28;20262;-83
2021/06/29 10:07:16;;;;;;;3.90;3.60;;;27.90;57.90;;;;;;5000248;28;20202;-81
2021/06/29 10:09:46;;;;;;;4.00;3.60;;;28.00;58.20;;;;;;5007796;28;20511;-82
2021/06/29 10:12:25;;;;;;;4.22;3.92;;;28.30;59.30;;;;;;4994955;28;20210;-84
2021/06/29 10:14:53;;;;;;;3.88;3.53;;;28.60;59.30;;;;;;4994292;28;20550;-83
2021/06/29 10:17:22;;;;;;;4.22;3.83;;;28.70;58.00;;;;;;4999669;28;20705;-83
2021/06/29 10:20:10;;;;;;;3.90;3.60;;;28.80;57.60;;;;;;4981018;28;20233;-83
2021/06/29 10:22:41;;;;;;;3.80;3.42;;;28.80;57.90;;;;;;4986116;28;20811;-83
2021/06/29 10:25:16;;;;;;;4.22;3.90;;;28.70;57.40;;;;;;4991384;28;20206;-80
2021/06/29 10:27:46;;;;;;;4.10;3.70;;;28.60;58.00;;;;;;4983519;28;20580;-83
2021/06/29 10:30:15;;;;;;;4.13;3.72;;;28.60;58.00;;;;;;4991423;28;20219;-82
2021/06/29 10:32:44;;;;;;;4.05;3.75;;;28.50;56.80;;;;;;4984956;28;20218;-83
2021/06/29 10:35:13;;;;;;;5.28;3.75;;;28.40;57.10;;;;;;4993281;28;20232;-84
2021/06/29 10:37:42;;;;;;;4.00;3.50;;;28.40;57.10;;;;;;4987104;28;20207;-81
2021/06/29 10:40:13;;;;;;;4.00;3.70;;;28.30;57.20;;;;;;4988722;28;20671;-84
2021/06/29 10:42:42;;;;;;;3.58;3.30;;;28.30;57.40;;;;;;4994566;28;20218;-82
2021/06/29 10:45:15;;;;;;;3.63;3.30;;;28.30;56.90;;;;;;4994283;28;20207;-81
2021/06/29 10:47:44;;;;;;;5.07;3.40;;;28.30;56.00;;;;;;4987443;28;20767;-84
2021/06/29 10:50:14;;;;;;;3.30;3.10;;;28.30;55.70;;;;;;5000949;28;20203;-81
2021/06/29 10:52:44;;;;;;;3.78;3.40;;;28.30;55.10;;;;;;4988796;28;20304;-84
2021/06/29 10:55:25;;;;;;;3.65;3.17;;;28.30;55.40;;;;;;4996865;28;20214;-83
2021/06/29 10:57:55;;;;;;;3.65;2.90;;;28.30;54.90;;;;;;4987885;28;20438;-84
2021/06/29 11:00:31;;;;;;;3.33;3.10;;;28.30;53.50;;;;;;4991149;28;20853;-82
2021/06/29 11:03:07;;;;;;;3.60;3.30;;;28.40;53.70;;;;;;4979889;28;20566;-80
2021/06/29 11:05:39;;;;;;;3.40;3.20;;;28.40;54.60;;;;;;4994450;28;20293;-81
2021/06/29 11:08:12;;;;;;;3.50;3.20;;;28.30;53.80;;;;;;4978741;28;20532;-82
2021/06/29 11:10:45;;;;;;;3.47;3.17;;;28.20;53.90;;;;;;4997270;28;20931;-81
2021/06/29 11:13:14;;;;;;;3.63;3.33;;;28.10;54.80;;;;;;4990459;28;20997;-82
2021/06/29 11:15:51;;;;;;;3.40;3.20;;;28.10;55.00;;;;;;4990037;28;20203;-82
2021/06/29 11:18:24;;;;;;;5.63;3.58;;;28.10;54.00;;;;;;4994345;28;20782;-84
2021/06/29 11:20:54;;;;;;;3.80;3.50;;;28.20;53.40;;;;;;5013887;28;20234;-84
2021/06/29 11:23:32;;;;;;;3.30;3.03;;;28.30;53.90;;;;;;5010428;28;20758;-83
2021/06/29 11:26:18;;;;;;;3.55;3.25;;;28.20;53.30;;;;;;4992420;28;21131;-81
2021/06/29 11:29:08;;;;;;;3.47;3.17;;;28.20;53.00;;;;;;4994372;28;20653;-82
2021/06/29 11:31:40;;;;;;;3.05;2.75;;;28.10;52.60;;;;;;5000673;28;20537;-83
2021/06/29 11:34:10;;;;;;;3.33;3.00;;;28.20;52.70;;;;;;4995677;28;20216;-81
2021/06/29 11:36:44;;;;;;;3.17;2.97;;;28.20;52.70;;;;;;4997215;28;20300;-81
2021/06/29 11:39:38;;;;;;;3.60;3.30;;;28.30;52.90;;;;;;4999713;28;20314;-81
2021/06/29 11:42:21;;;;;;;3.13;2.80;;;28.40;52.50;;;;;;4978558;28;20218;-81
2021/06/29 11:44:55;;;;;;;4.03;3.20;;;28.40;52.20;;;;;;5001451;28;20422;-81
2021/06/29 11:47:27;;;;;;;3.40;2.88;;;28.40;51.70;;;;;;4990808;28;20306;-80
2021/06/29 11:49:58;;;;;;;4.25;3.03;;;28.30;50.80;;;;;;5007382;28;20210;-82
2021/06/29 11:52:31;;;;;;;3.72;3.17;;;28.30;51.10;;;;;;4983991;28;20203;-82
2021/06/29 11:55:06;;;;;;;3.13;2.67;;;28.20;51.40;;;;;;4999453;28;20226;-82
2021/06/29 11:57:38;;;;;;;4.07;3.67;;;28.30;51.80;;;;;;4992352;28;20225;-80
2021/06/29 12:00:29;;;;;;;3.50;3.20;;;28.50;51.20;;;;;;5001889;28;20264;-85
2021/06/29 12:03:01;;;;;;;3.40;3.10;;;28.70;51.40;;;;;;4989982;28;20692;-82
2021/06/29 12:05:32;;;;;;;3.42;3.00;;;28.90;50.70;;;;;;4995452;28;20401;-83
2021/06/29 12:08:05;;;;;;;3.65;3.20;;;29.10;51.60;;;;;;4990656;28;20203;-81
2021/06/29 12:10:36;;;;;;;3.53;3.22;;;29.20;50.90;;;;;;4993746;28;20498;-83
2021/06/29 12:13:07;;;;;;;3.22;2.92;;;29.30;51.30;;;;;;5004368;28;20518;-83
2021/06/29 12:15:37;;;;;;;3.50;3.00;;;29.40;49.00;;;;;;4996178;28;20207;-81
2021/06/29 12:18:12;;;;;;;3.17;2.97;;;29.40;49.10;;;;;;4989904;28;20206;-83
2021/06/29 12:20:44;;;;;;;3.10;2.90;;;29.60;49.60;;;;;;4995216;28;20254;-82
2021/06/29 12:23:14;;;;;;;4.78;3.28;;;29.60;49.90;;;;;;4995358;28;20295;-82
2021/06/29 12:25:45;;;;;;;3.58;3.28;;;29.70;50.80;;;;;;4997267;28;20836;-84
2021/06/29 12:28:17;;;;;;;3.10;2.90;;;29.70;49.90;;;;;;4992167;28;20699;-82
2021/06/29 12:30:48;;;;;;;3.65;2.70;;;29.70;49.30;;;;;;5003932;28;20298;-82
2021/06/29 12:33:22;;;;;;;4.53;3.40;;;29.80;49.30;;;;;;5000599;28;20803;-82
2021/06/29 12:35:54;;;;;;;4.00;3.63;;;30.00;50.30;;;;;;4995095;28;20210;-80
2021/06/29 12:38:25;;;;;;;4.28;3.88;;;30.10;49.90;;;;;;5000446;28;20210;-81
2021/06/29 12:40:57;;;;;;;3.90;3.50;;;30.30;50.50;;;;;;5006422;28;20253;-83
2021/06/29 12:43:30;;;;;;;3.28;3.08;;;30.30;50.60;;;;;;5016952;28;20540;-83
2021/06/29 12:46:18;;;;;;;4.72;3.88;;;30.10;51.30;;;;;;5015701;28;20227;-84
2021/06/29 12:49:01;;;;;;;3.22;3.03;;;30.10;50.90;;;;;;5000919;28;20210;-83
2021/06/29 12:51:30;;;;;;;3.55;3.25;;;30.30;50.80;;;;;;4989457;28;20417;-86
2021/06/29 12:54:00;;;;;;;3.05;2.80;;;30.30;50.20;;;;;;4997236;28;20230;-82
2021/06/29 12:56:35;;;;;;;3.45;2.92;;;30.40;49.10;;;;;;4993351;28;20216;-87
2021/06/29 12:59:04;;;;;;;3.20;2.97;;;30.60;50.00;;;;;;4990126;28;20615;-82